Time;durP1;ratioP1;P1;durP2;ratioP2;P2;SDS_P1;SDS_P2;PMS_P1;PMS_P2;Temp;Humidity;BMP_temperature;BMP_pressure;BME280_temperature;BME280_humidity;BME280_pressure;Samples;Min_cycle;Max_cycle;Signal;HPM_P1;HPM_P2
2023/12/17 00:00:03;;;;;;;8.80;2.50;;;;;;;9.02;100.00;103760.34;5034827;28;20308;-74
2023/12/17 00:02:29;;;;;;;7.50;3.00;;;;;;;9.01;100.00;103751.63;5034324;28;20334;-74
2023/12/17 00:04:54;;;;;;;6.38;2.60;;;;;;;9.01;100.00;103746.38;5034225;28;20029;-75
2023/12/17 00:07:19;;;;;;;3.60;2.17;;;;;;;8.99;100.00;103740.28;5033266;28;20080;-75
2023/12/17 00:09:45;;;;;;;5.47;2.58;;;;;;;8.98;100.00;103738.50;5033856;28;20088;-75
2023/12/17 00:12:10;;;;;;;13.30;2.83;;;;;;;8.98;100.00;103732.41;5035570;28;20088;-75
2023/12/17 00:14:36;;;;;;;5.60;2.83;;;;;;;8.96;100.00;103737.59;5035278;28;20041;-74
2023/12/17 00:17:01;;;;;;;4.38;2.58;;;;;;;8.98;100.00;103738.50;5035175;28;20329;-75
2023/12/17 00:19:27;;;;;;;10.77;2.83;;;;;;;8.98;100.00;103738.50;5030845;28;20308;-75
2023/12/17 00:21:53;;;;;;;4.78;2.30;;;;;;;8.98;100.00;103735.88;5035640;28;20104;-74
2023/12/17 00:24:18;;;;;;;3.05;2.40;;;;;;;8.98;100.00;103727.19;5036161;28;20037;-75
2023/12/17 00:26:43;;;;;;;5.80;2.35;;;;;;;9.00;100.00;103730.69;5035736;28;20025;-74
2023/12/17 00:29:09;;;;;;;3.20;2.80;;;;;;;9.00;100.00;103728.06;5036194;28;20232;-74
2023/12/17 00:31:34;;;;;;;3.28;2.83;;;;;;;9.01;100.00;103727.22;5035987;28;20044;-74
2023/12/17 00:34:00;;;;;;;4.72;2.50;;;;;;;9.00;100.00;103738.53;5036467;28;20216;-75
2023/12/17 00:36:25;;;;;;;5.18;2.58;;;;;;;8.99;100.00;103739.41;5035652;28;20135;-75
2023/12/17 00:38:51;;;;;;;3.38;2.58;;;;;;;8.98;100.00;103738.50;5036074;28;20029;-75
2023/12/17 00:41:16;;;;;;;2.42;2.22;;;;;;;8.99;100.00;103731.56;5035180;28;20041;-75
2023/12/17 00:43:43;;;;;;;4.30;2.45;;;;;;;9.01;100.00;103733.31;5035731;28;20063;-75
2023/12/17 00:46:08;;;;;;;4.18;2.20;;;;;;;9.01;100.00;103722.00;5036188;28;20061;-75
2023/12/17 00:48:33;;;;;;;5.85;2.58;;;;;;;9.02;100.00;103718.50;5035530;28;20268;-75
2023/12/17 00:50:59;;;;;;;4.18;2.53;;;;;;;8.99;100.00;103718.50;5035412;28;20183;-75
2023/12/17 00:53:24;;;;;;;7.15;2.60;;;;;;;8.99;100.00;103714.13;5035466;28;20037;-74
2023/12/17 00:55:50;;;;;;;4.63;2.70;;;;;;;8.98;100.00;103714.97;5035182;28;20105;-74
2023/12/17 00:58:15;;;;;;;3.20;2.17;;;;;;;8.98;100.00;103711.50;5017675;28;20109;-75
2023/12/17 01:00:40;;;;;;;2.85;2.38;;;;;;;8.96;100.00;103711.47;5035065;28;20029;-75
2023/12/17 01:03:06;;;;;;;4.28;1.92;;;;;;;8.97;100.00;103714.97;5035022;28;20103;-74
2023/12/17 01:05:33;;;;;;;5.72;2.20;;;;;;;8.98;100.00;103711.50;5034718;28;20037;-74
2023/12/17 01:07:58;;;;;;;3.95;2.35;;;;;;;9.00;100.00;103715.91;5036498;28;20135;-74
2023/12/17 01:10:24;;;;;;;3.67;2.22;;;;;;;9.00;100.00;103713.28;5035041;28;20264;-74
2023/12/17 01:12:49;;;;;;;4.35;1.92;;;;;;;8.98;100.00;103720.19;5038814;28;20041;-74
2023/12/17 01:15:14;;;;;;;2.45;2.08;;;;;;;8.97;100.00;103713.25;5054545;28;20036;-74
2023/12/17 01:17:40;;;;;;;4.57;2.08;;;;;;;9.00;100.00;103709.78;5035138;28;20045;-74
2023/12/17 01:20:08;;;;;;;3.55;1.75;;;;;;;9.01;100.00;103706.31;5043701;28;20033;-75
2023/12/17 01:22:33;;;;;;;7.25;1.92;;;;;;;9.02;100.00;103708.94;5045872;28;20036;-75
2023/12/17 01:24:58;;;;;;;8.15;1.80;;;;;;;8.98;100.00;103709.75;5042139;28;20270;-74
2023/12/17 01:27:24;;;;;;;6.63;1.85;;;;;;;8.98;100.00;103704.53;5036515;28;20037;-75
2023/12/17 01:29:49;;;;;;;5.22;1.65;;;;;;;8.98;100.00;103707.13;5026221;28;20479;-75
2023/12/17 01:32:14;;;;;;;5.85;1.83;;;;;;;8.96;100.00;103692.31;5034416;28;20029;-75
2023/12/17 01:34:40;;;;;;;4.32;1.42;;;;;;;8.97;100.00;103689.72;5034320;28;20033;-75
2023/12/17 01:37:06;;;;;;;4.32;1.73;;;;;;;8.97;100.00;103686.22;5033530;28;20053;-75
2023/12/17 01:39:31;;;;;;;5.38;1.67;;;;;;;8.98;100.00;103690.59;5032416;28;20033;-74
2023/12/17 01:41:57;;;;;;;3.00;1.75;;;;;;;8.97;100.00;103688.84;5037419;28;20086;-75
2023/12/17 01:44:22;;;;;;;1.98;1.30;;;;;;;8.95;100.00;103693.16;5038562;28;20304;-75
2023/12/17 01:46:47;;;;;;;7.28;1.92;;;;;;;8.96;100.00;103693.16;5043010;28;20197;-75
2023/12/17 01:49:13;;;;;;;2.15;1.30;;;;;;;8.99;100.00;103690.59;5053926;28;20340;-74
2023/12/17 01:51:41;;;;;;;5.28;1.63;;;;;;;8.98;100.00;103693.19;5049821;28;20096;-74
2023/12/17 01:54:07;;;;;;;4.82;1.88;;;;;;;8.97;100.00;103681.88;5042244;28;20035;-74
2023/12/17 01:56:33;;;;;;;3.53;1.77;;;;;;;8.97;100.00;103691.47;5054017;28;20049;-74
2023/12/17 01:59:00;;;;;;;7.22;2.10;;;;;;;8.96;100.00;103685.31;5054572;28;20037;-74
2023/12/17 02:01:25;;;;;;;8.40;1.70;;;;;;;8.97;100.00;103694.94;5054413;28;20036;-74
2023/12/17 02:03:51;;;;;;;8.63;2.00;;;;;;;8.97;100.00;103696.69;5036519;28;20585;-74
2023/12/17 02:06:16;;;;;;;5.18;1.30;;;;;;;8.97;100.00;103694.06;5034485;28;20037;-74
2023/12/17 02:08:41;;;;;;;4.75;1.30;;;;;;;8.95;100.00;103688.81;5034026;28;20448;-74
2023/12/17 02:11:07;;;;;;;5.38;1.30;;;;;;;8.96;100.00;103693.16;5034476;28;20048;-74
2023/12/17 02:13:32;;;;;;;7.78;1.70;;;;;;;8.97;100.00;103696.69;5033795;28;20068;-74
2023/12/17 02:15:57;;;;;;;12.65;1.85;;;;;;;8.97;100.00;103701.91;5034223;28;20064;-74
2023/12/17 02:18:23;;;;;;;3.45;1.65;;;;;;;8.98;100.00;103706.25;5033962;28;20329;-74
2023/12/17 02:20:48;;;;;;;6.90;2.10;;;;;;;8.97;100.00;103708.00;5033701;28;20243;-74
2023/12/17 02:23:13;;;;;;;5.15;2.50;;;;;;;8.99;100.00;103719.34;5033688;28;20029;-74
2023/12/17 02:25:39;;;;;;;4.95;1.95;;;;;;;9.01;100.00;103719.38;5033514;28;20232;-75
2023/12/17 02:28:04;;;;;;;8.65;2.25;;;;;;;9.01;100.00;103730.72;5034217;28;20111;-75
2023/12/17 02:30:30;;;;;;;8.75;2.25;;;;;;;9.03;100.00;103726.38;5033949;28;20398;-74
2023/12/17 02:32:55;;;;;;;7.88;2.28;;;;;;;9.04;100.00;103727.28;5015789;28;20267;-75
2023/12/17 02:35:23;;;;;;;5.13;2.60;;;;;;;9.03;100.00;103723.75;5034067;28;20321;-74
2023/12/17 02:37:49;;;;;;;9.15;2.40;;;;;;;9.02;100.00;103723.72;5029565;28;20045;-75
2023/12/17 02:40:14;;;;;;;5.47;2.50;;;;;;;9.03;100.00;103720.28;5033111;28;20242;-74
2023/12/17 02:42:40;;;;;;;5.95;2.33;;;;;;;9.00;100.00;103715.91;5033567;28;20037;-74
2023/12/17 02:45:06;;;;;;;6.38;2.92;;;;;;;9.01;100.00;103709.78;5033752;28;20251;-75
2023/12/17 02:47:31;;;;;;;13.93;2.70;;;;;;;9.02;100.00;103708.94;5033189;28;20127;-74
2023/12/17 02:49:56;;;;;;;17.17;3.47;;;;;;;9.00;100.00;103709.78;5033954;28;20036;-74
2023/12/17 02:52:22;;;;;;;8.68;3.20;;;;;;;8.99;100.00;103698.44;5033405;28;20103;-74
2023/12/17 02:54:48;;;;;;;6.85;2.50;;;;;;;9.06;100.00;103701.13;5032981;28;20070;-74
2023/12/17 02:57:14;;;;;;;18.40;3.45;;;;;;;9.03;100.00;103700.22;5033711;28;20037;-74
2023/12/17 02:59:40;;;;;;;7.40;2.72;;;;;;;9.05;100.00;103689.78;5033111;28;20047;-75
2023/12/17 03:02:05;;;;;;;9.38;2.83;;;;;;;9.05;100.00;103697.63;5033436;28;20072;-75
2023/12/17 03:04:30;;;;;;;11.10;2.72;;;;;;;9.03;100.00;103702.84;5033195;28;20037;-75
2023/12/17 03:06:56;;;;;;;12.75;2.53;;;;;;;9.05;100.00;103700.25;5033723;28;20292;-74
2023/12/17 03:09:21;;;;;;;13.95;3.17;;;;;;;8.98;100.00;103704.53;5033265;28;20067;-74
2023/12/17 03:11:47;;;;;;;11.95;3.03;;;;;;;9.00;100.00;103692.38;5033070;28;20346;-75
2023/12/17 03:14:12;;;;;;;15.07;3.50;;;;;;;9.00;100.00;103702.81;5032965;28;20186;-74
2023/12/17 03:16:38;;;;;;;9.73;2.78;;;;;;;9.02;100.00;103681.91;5033773;28;20381;-75
2023/12/17 03:19:03;;;;;;;18.90;3.60;;;;;;;8.99;100.00;103682.75;5037391;28;20048;-75
2023/12/17 03:21:29;;;;;;;7.75;2.70;;;;;;;8.97;100.00;103689.72;5037004;28;20037;-75
2023/12/17 03:23:54;;;;;;;8.57;2.95;;;;;;;8.99;100.00;103688.00;5037028;28;20037;-75
2023/12/17 03:26:20;;;;;;;14.15;3.55;;;;;;;8.98;100.00;103681.00;5034015;28;20067;-75
2023/12/17 03:28:45;;;;;;;12.07;3.45;;;;;;;8.96;100.00;103677.50;5036430;28;20037;-72
2023/12/17 03:31:15;;;;;;;24.17;4.10;;;;;;;8.94;100.00;103681.81;5037140;28;20109;-72
2023/12/17 03:33:44;;;;;;;6.68;3.28;;;;;;;8.94;100.00;103673.13;5019702;28;20036;-72
2023/12/17 03:36:14;;;;;;;12.63;3.90;;;;;;;8.93;100.00;103664.41;5036131;28;20061;-72
2023/12/17 03:38:40;;;;;;;10.85;3.00;;;;;;;8.93;100.00;103672.25;5035065;28;20037;-72
2023/12/17 03:41:06;;;;;;;12.02;3.20;;;;;;;8.93;100.00;103663.50;5035653;28;20209;-72
2023/12/17 03:43:31;;;;;;;22.98;4.45;;;;;;;8.90;100.00;103666.09;5035682;28;20237;-72
2023/12/17 03:45:56;;;;;;;15.55;3.42;;;;;;;8.92;100.00;103678.31;5036427;28;20041;-72
2023/12/17 03:48:22;;;;;;;16.42;4.10;;;;;;;8.86;100.00;103680.88;5036809;28;20229;-71
2023/12/17 03:50:47;;;;;;;9.40;4.03;;;;;;;8.87;100.00;103674.78;5018766;28;20033;-71
2023/12/17 03:53:12;;;;;;;9.82;3.95;;;;;;;8.89;100.00;103672.19;5036450;28;20036;-73
2023/12/17 03:55:38;;;;;;;13.10;3.95;;;;;;;8.90;100.00;103663.50;5036814;28;20041;-73
2023/12/17 03:58:04;;;;;;;14.55;3.80;;;;;;;8.88;100.00;103673.03;5037199;28;20377;-73
2023/12/17 04:00:29;;;;;;;20.40;4.35;;;;;;;8.85;100.00;103663.44;5036101;28;20236;-74
2023/12/17 04:02:55;;;;;;;16.95;4.57;;;;;;;8.87;100.00;103656.47;5037459;28;20188;-73
2023/12/17 04:05:20;;;;;;;16.52;4.35;;;;;;;8.81;100.00;103659.91;5036323;28;20348;-73
2023/12/17 04:07:46;;;;;;;13.93;4.50;;;;;;;8.83;100.00;103644.25;5036289;28;20378;-73
2023/12/17 04:10:11;;;;;;;14.77;3.92;;;;;;;8.78;100.00;103645.91;5036853;28;20267;-74
2023/12/17 04:12:36;;;;;;;13.75;4.32;;;;;;;8.84;100.00;103645.97;5036764;28;20272;-74
2023/12/17 04:15:02;;;;;;;11.27;3.65;;;;;;;8.81;100.00;103641.59;5036930;28;20041;-74
2023/12/17 04:17:27;;;;;;;18.05;3.97;;;;;;;8.83;100.00;103644.25;5035956;28;20044;-74
2023/12/17 04:19:52;;;;;;;14.65;3.65;;;;;;;8.80;100.00;103632.03;5036454;28;20252;-74
2023/12/17 04:22:18;;;;;;;20.60;4.20;;;;;;;8.77;100.00;103633.72;5035636;28;20064;-74
2023/12/17 04:24:43;;;;;;;15.45;4.40;;;;;;;8.75;100.00;103638.94;5035406;28;20041;-74
2023/12/17 04:27:09;;;;;;;16.77;3.47;;;;;;;8.75;100.00;103630.19;5035246;28;20075;-74
2023/12/17 04:29:34;;;;;;;12.68;3.50;;;;;;;8.76;100.00;103637.19;5034902;28;20332;-73
2023/12/17 04:31:59;;;;;;;10.77;3.42;;;;;;;8.77;100.00;103629.38;5036461;28;20079;-74
2023/12/17 04:34:25;;;;;;;16.85;3.88;;;;;;;8.72;100.00;103631.06;5035961;28;20379;-74
2023/12/17 04:36:50;;;;;;;20.25;4.78;;;;;;;8.76;100.00;103637.19;5034690;28;20406;-73
2023/12/17 04:39:15;;;;;;;18.80;4.13;;;;;;;8.77;100.00;103632.00;5035570;28;20025;-73
2023/12/17 04:41:41;;;;;;;20.20;4.47;;;;;;;8.79;100.00;103634.63;5034793;28;20041;-74
2023/12/17 04:44:07;;;;;;;18.00;3.75;;;;;;;8.75;100.00;103622.34;5036095;28;20107;-74
2023/12/17 04:46:32;;;;;;;15.45;3.75;;;;;;;8.73;100.00;103637.16;5025433;28;20513;-73
2023/12/17 04:48:58;;;;;;;23.38;4.82;;;;;;;8.70;100.00;103637.13;5035871;28;20193;-74
2023/12/17 04:51:23;;;;;;;27.42;4.50;;;;;;;8.69;100.00;103635.38;5035102;28;20037;-74
2023/12/17 04:53:49;;;;;;;14.18;3.90;;;;;;;8.66;100.00;103628.38;5035642;28;20038;-74
2023/12/17 04:56:16;;;;;;;12.77;3.85;;;;;;;8.69;100.00;103625.78;5035612;28;20268;-73
2023/12/17 04:58:41;;;;;;;21.63;4.72;;;;;;;8.67;100.00;103632.72;5035756;28;20240;-74
2023/12/17 05:01:06;;;;;;;21.05;4.70;;;;;;;8.67;100.00;103637.09;5034922;28;20069;-73
2023/12/17 05:03:32;;;;;;;20.52;4.72;;;;;;;8.68;100.00;103618.81;5035113;28;20256;-74
2023/12/17 05:05:57;;;;;;;14.73;4.45;;;;;;;8.65;100.00;103626.63;5036291;28;20285;-74
2023/12/17 05:08:23;;;;;;;23.23;5.10;;;;;;;8.67;100.00;103611.81;5035730;28;20038;-74
2023/12/17 05:10:49;;;;;;;20.80;4.55;;;;;;;8.64;100.00;103610.06;5035629;28;20083;-74
2023/12/17 05:13:15;;;;;;;24.90;5.10;;;;;;;8.67;100.00;103611.81;5035298;28;20301;-73
2023/12/17 05:15:40;;;;;;;15.85;4.00;;;;;;;8.72;100.00;103619.72;5035267;28;20049;-74
2023/12/17 05:18:06;;;;;;;22.55;4.68;;;;;;;8.70;100.00;103618.84;5035555;28;20083;-73
2023/12/17 05:20:31;;;;;;;12.40;3.78;;;;;;;8.76;100.00;103622.38;5035045;28;20361;-74
2023/12/17 05:22:56;;;;;;;19.05;4.65;;;;;;;8.76;100.00;103609.31;5035444;28;20064;-74
2023/12/17 05:25:22;;;;;;;25.13;5.03;;;;;;;8.71;100.00;103597.06;5035082;28;20341;-74
2023/12/17 05:27:47;;;;;;;22.10;4.65;;;;;;;8.74;100.00;103608.44;5016589;28;20069;-73
2023/12/17 05:30:13;;;;;;;19.35;5.22;;;;;;;8.78;100.00;103598.88;5034764;28;20352;-74
2023/12/17 05:32:38;;;;;;;18.65;5.07;;;;;;;8.76;100.00;103600.59;5034945;28;20045;-74
2023/12/17 05:35:04;;;;;;;14.60;5.30;;;;;;;8.73;100.00;103605.78;5034787;28;20040;-73
2023/12/17 05:37:30;;;;;;;22.17;5.47;;;;;;;8.71;100.00;103597.94;5033558;28;20101;-73
2023/12/17 05:39:55;;;;;;;11.02;4.60;;;;;;;8.76;100.00;103608.44;5033440;28;20060;-74
2023/12/17 05:42:21;;;;;;;14.25;4.63;;;;;;;8.78;100.00;103604.13;5015559;28;20036;-73
2023/12/17 05:44:46;;;;;;;13.73;4.80;;;;;;;8.78;100.00;103609.34;5033675;28;20049;-73
2023/12/17 05:47:11;;;;;;;13.52;5.65;;;;;;;8.77;100.00;103612.81;5034441;28;20044;-74
2023/12/17 05:49:40;;;;;;;17.58;5.53;;;;;;;8.76;100.00;103605.84;5034345;28;20064;-73
2023/12/17 05:52:07;;;;;;;14.93;5.40;;;;;;;8.76;100.00;103616.28;5034822;28;20072;-73
2023/12/17 05:54:33;;;;;;;16.45;6.35;;;;;;;8.71;100.00;103615.34;5034208;28;20284;-73
2023/12/17 05:56:58;;;;;;;14.75;5.80;;;;;;;8.72;100.00;103624.97;5034907;28;20367;-73
2023/12/17 05:59:24;;;;;;;16.90;6.32;;;;;;;8.73;100.00;103630.22;5034139;28;20037;-74
2023/12/17 06:01:49;;;;;;;15.57;6.25;;;;;;;8.70;100.00;103619.72;5034640;28;20037;-73
2023/12/17 06:04:14;;;;;;;21.65;7.65;;;;;;;8.69;100.00;103625.78;5033946;28;20271;-73
2023/12/17 06:06:40;;;;;;;18.70;8.35;;;;;;;8.70;100.00;103618.84;5034166;28;20033;-73
2023/12/17 06:09:05;;;;;;;23.00;9.23;;;;;;;8.69;100.00;103636.22;5034068;28;20260;-73
2023/12/17 06:11:30;;;;;;;34.42;12.35;;;;;;;8.68;100.00;103618.81;5034082;28;20097;-73
2023/12/17 06:13:56;;;;;;;24.38;12.65;;;;;;;8.71;100.00;103634.50;5034088;28;20036;-74
2023/12/17 06:16:21;;;;;;;25.20;12.90;;;;;;;8.69;100.00;103635.38;5034164;28;20037;-74
2023/12/17 06:18:47;;;;;;;28.63;14.20;;;;;;;8.71;100.00;103637.13;5019450;28;20041;-73
2023/12/17 06:21:23;;;;;;;36.08;17.40;;;;;;;8.76;100.00;103626.75;5034149;28;20032;-74
2023/12/17 06:23:50;;;;;;;38.88;19.55;;;;;;;8.69;100.00;103627.53;5033755;28;20037;-74
2023/12/17 06:26:19;;;;;;;40.03;19.70;;;;;;;8.71;100.00;103618.84;5033558;28;20475;-74
2023/12/17 06:28:45;;;;;;;43.42;20.95;;;;;;;8.69;100.00;103601.41;5033446;28;20080;-74
2023/12/17 06:31:10;;;;;;;45.05;21.08;;;;;;;8.70;100.00;103611.88;5033540;28;20045;-74
2023/12/17 06:33:36;;;;;;;44.20;21.10;;;;;;;8.69;100.00;103607.50;5034206;28;20211;-74
2023/12/17 06:36:01;;;;;;;42.00;21.15;;;;;;;8.72;100.00;103607.53;5015772;28;20332;-74
2023/12/17 06:38:26;;;;;;;42.97;21.65;;;;;;;8.67;100.00;103608.34;5033272;28;20209;-74
2023/12/17 06:40:54;;;;;;;38.40;20.48;;;;;;;8.69;100.00;103609.22;5015911;28;20075;-73
2023/12/17 06:43:19;;;;;;;43.42;19.50;;;;;;;8.70;100.00;103604.03;5033435;28;20089;-73
2023/12/17 06:45:45;;;;;;;39.90;20.38;;;;;;;8.70;100.00;103605.78;5033796;28;20034;-73
2023/12/17 06:48:10;;;;;;;38.47;19.83;;;;;;;8.73;100.00;103613.63;5034175;28;20551;-72
2023/12/17 06:50:35;;;;;;;35.42;19.88;;;;;;;8.72;100.00;103623.22;5034123;28;20033;-73
2023/12/17 06:53:01;;;;;;;32.05;18.60;;;;;;;8.72;100.00;103623.22;5034000;28;20094;-73
2023/12/17 06:55:26;;;;;;;35.40;20.13;;;;;;;8.74;100.00;103620.63;5033968;28;20037;-73
2023/12/17 06:57:51;;;;;;;40.33;19.75;;;;;;;8.75;100.00;103624.97;5034102;28;20048;-73
2023/12/17 07:00:17;;;;;;;41.85;19.48;;;;;;;8.78;100.00;103625.88;5033444;28;20052;-73
2023/12/17 07:02:42;;;;;;;32.47;18.58;;;;;;;8.79;100.00;103619.81;5033290;28;20249;-73
2023/12/17 07:05:08;;;;;;;37.35;17.63;;;;;;;8.89;100.00;103625.13;5034088;28;20044;-73
2023/12/17 07:07:34;;;;;;;25.55;15.70;;;;;;;8.83;100.00;103628.56;5033365;28;20112;-73
2023/12/17 07:09:59;;;;;;;34.78;15.88;;;;;;;8.76;100.00;103621.50;5033648;28;20048;-73
2023/12/17 07:12:25;;;;;;;26.20;13.98;;;;;;;8.75;100.00;103622.34;5032464;28;20041;-72
2023/12/17 07:14:50;;;;;;;22.17;13.63;;;;;;;8.77;100.00;103607.59;5033201;28;20263;-72
2023/12/17 07:17:15;;;;;;;26.27;14.77;;;;;;;8.74;100.00;103602.34;5033219;28;20344;-73
2023/12/17 07:19:41;;;;;;;23.38;13.70;;;;;;;8.68;100.00;103615.31;5032957;28;20316;-73
2023/12/17 07:22:06;;;;;;;26.90;12.55;;;;;;;8.64;100.00;103624.84;5033623;28;20340;-74
2023/12/17 07:24:31;;;;;;;19.38;12.90;;;;;;;8.62;100.00;103618.72;5033052;28;20037;-73
2023/12/17 07:26:57;;;;;;;22.80;12.40;;;;;;;8.58;100.00;103624.78;5033640;28;20037;-73
2023/12/17 07:29:22;;;;;;;27.17;13.40;;;;;;;8.56;100.00;103618.66;5033652;28;20262;-73
2023/12/17 07:31:48;;;;;;;22.58;12.20;;;;;;;8.58;100.00;103624.78;5033165;28;20336;-73
2023/12/17 07:34:13;;;;;;;22.08;11.88;;;;;;;8.58;100.00;103622.16;5033594;28;20033;-74
2023/12/17 07:36:39;;;;;;;18.08;11.10;;;;;;;8.57;100.00;103617.81;5032606;28;20045;-74
2023/12/17 07:39:05;;;;;;;19.58;11.48;;;;;;;8.55;100.00;103623.03;5031498;28;20040;-73
2023/12/17 07:41:30;;;;;;;22.88;11.63;;;;;;;8.52;100.00;103622.09;5031253;28;20065;-74
2023/12/17 07:43:56;;;;;;;23.38;12.48;;;;;;;8.50;100.00;103629.06;5031901;28;20029;-74
2023/12/17 07:46:21;;;;;;;23.42;12.52;;;;;;;8.51;100.00;103622.94;5014329;28;20088;-74
2023/12/17 07:48:46;;;;;;;22.58;11.85;;;;;;;8.50;100.00;103623.81;5031919;28;20052;-73
2023/12/17 07:51:12;;;;;;;19.30;11.95;;;;;;;8.48;100.00;103631.63;5013972;28;20037;-74
2023/12/17 07:53:37;;;;;;;20.35;12.38;;;;;;;8.49;100.00;103635.13;5032450;28;20053;-73
2023/12/17 07:56:03;;;;;;;22.23;11.82;;;;;;;8.45;100.00;103629.84;5033448;28;20364;-74
2023/12/17 07:58:31;;;;;;;19.83;12.40;;;;;;;8.46;100.00;103635.97;5032751;28;20037;-74
2023/12/17 08:00:56;;;;;;;19.63;12.02;;;;;;;8.46;100.00;103635.97;5033307;28;20041;-74
2023/12/17 08:03:23;;;;;;;24.33;14.43;;;;;;;8.47;100.00;103639.44;5035049;28;20285;-73
2023/12/17 08:05:48;;;;;;;28.45;14.18;;;;;;;8.40;100.00;103635.84;5035905;28;20045;-74
2023/12/17 08:08:15;;;;;;;25.80;14.35;;;;;;;8.34;100.00;103635.75;5036085;28;20056;-74
2023/12/17 08:10:40;;;;;;;23.10;14.13;;;;;;;8.37;100.00;103641.03;5036397;28;20105;-74
2023/12/17 08:13:06;;;;;;;22.52;14.15;;;;;;;8.36;100.00;103632.31;5036493;28;20034;-74
2023/12/17 08:15:31;;;;;;;26.83;13.48;;;;;;;8.22;100.00;103642.59;5036076;28;20420;-74
2023/12/17 08:17:56;;;;;;;23.67;12.55;;;;;;;8.22;100.00;103639.97;5036671;28;20252;-73
2023/12/17 08:20:22;;;;;;;31.35;14.75;;;;;;;8.21;100.00;103648.66;5035861;28;20206;-73
2023/12/17 08:22:47;;;;;;;20.73;13.30;;;;;;;8.22;100.00;103645.19;5035958;28;20083;-74
2023/12/17 08:25:13;;;;;;;21.85;13.25;;;;;;;8.22;100.00;103646.91;5036299;28;20030;-73
2023/12/17 08:27:38;;;;;;;22.05;13.80;;;;;;;8.22;100.00;103645.19;5035856;28;20332;-73
2023/12/17 08:30:04;;;;;;;28.92;14.70;;;;;;;8.24;100.00;103653.03;5036215;28;20041;-74
2023/12/17 08:32:33;;;;;;;27.30;14.88;;;;;;;8.23;100.00;103643.44;5032283;28;20106;-74
2023/12/17 08:34:59;;;;;;;28.90;14.30;;;;;;;8.15;100.00;103643.34;5036427;28;20060;-74
2023/12/17 08:37:26;;;;;;;23.58;14.40;;;;;;;8.11;100.00;103644.13;5035774;28;20085;-74
2023/12/17 08:39:55;;;;;;;24.10;13.57;;;;;;;8.13;100.00;103647.69;5036429;28;20300;-73
2023/12/17 08:42:20;;;;;;;;;;;;;;;8.14;100.00;103640.72;5036261;28;20048;-73
2023/12/17 08:44:47;;;;;;;20.85;12.85;;;;;;;8.15;100.00;103643.34;5035289;28;20277;-74
2023/12/17 08:47:12;;;;;;;30.08;13.85;;;;;;;8.10;100.00;103645.00;5027688;28;20044;-73
2023/12/17 08:49:38;;;;;;;21.27;13.80;;;;;;;8.12;100.00;103650.25;5032831;28;20341;-74
2023/12/17 08:52:04;;;;;;;23.70;13.52;;;;;;;8.15;100.00;103645.06;5033900;28;20090;-73
2023/12/17 08:54:29;;;;;;;28.48;14.65;;;;;;;8.13;100.00;103637.22;5033092;28;20087;-73
2023/12/17 08:56:55;;;;;;;28.10;14.80;;;;;;;8.05;100.00;103646.66;5033515;28;20341;-73
2023/12/17 08:59:20;;;;;;;31.13;16.38;;;;;;;8.05;100.00;103646.66;5033231;28;20037;-73
2023/12/17 09:01:46;;;;;;;26.45;16.33;;;;;;;8.05;100.00;103642.31;5032750;28;20033;-74
2023/12/17 09:04:11;;;;;;;33.10;17.00;;;;;;;8.04;100.00;103642.28;5033264;28;20047;-73
2023/12/17 09:06:44;;;;;;;29.02;16.60;;;;;;;8.08;100.00;103642.38;5032531;28;20040;-73
2023/12/17 09:09:11;;;;;;;35.45;18.85;;;;;;;8.04;100.00;103656.25;5032608;28;20039;-73
2023/12/17 09:11:36;;;;;;;33.88;18.73;;;;;;;8.00;100.00;103664.00;5031405;28;20029;-73
2023/12/17 09:14:02;;;;;;;31.75;19.33;;;;;;;7.91;100.00;103656.03;5029318;28;20530;-74
2023/12/17 09:16:27;;;;;;;34.38;18.55;;;;;;;7.91;100.00;103659.50;5030789;28;20037;-74
2023/12/17 09:18:52;;;;;;;30.02;17.42;;;;;;;7.95;100.00;103660.41;5033076;28;20108;-74
2023/12/17 09:21:18;;;;;;;30.55;17.33;;;;;;;8.01;100.00;103655.31;5030072;28;20048;-74
2023/12/17 09:23:43;;;;;;;34.05;18.02;;;;;;;8.03;100.00;103662.31;5035111;28;20042;-73
2023/12/17 09:26:09;;;;;;;32.88;18.50;;;;;;;8.03;100.00;103658.81;5035740;28;20044;-73
2023/12/17 09:28:35;;;;;;;31.83;18.88;;;;;;;7.98;100.00;103661.34;5035970;28;20040;-73
2023/12/17 09:31:01;;;;;;;36.83;19.23;;;;;;;8.03;100.00;103664.03;5033231;28;20079;-73
2023/12/17 09:33:26;;;;;;;41.03;21.52;;;;;;;8.01;100.00;103660.53;5034625;28;20045;-74
2023/12/17 09:35:52;;;;;;;38.97;22.48;;;;;;;7.94;100.00;103662.16;5033512;28;20225;-74
2023/12/17 09:38:17;;;;;;;40.17;22.15;;;;;;;7.94;100.00;103667.38;5031362;28;20040;-74
2023/12/17 09:40:46;;;;;;;39.58;22.35;;;;;;;7.85;100.00;103670.72;5032145;28;20033;-73
2023/12/17 09:43:12;;;;;;;;;;;;;;;7.84;100.00;103673.31;5027877;28;20055;-73
2023/12/17 09:45:38;;;;;;;36.90;21.83;;;;;;;7.90;100.00;103675.16;5018426;28;19944;-73
2023/12/17 09:48:04;;;;;;;37.17;21.83;;;;;;;7.94;100.00;103664.78;5028448;28;20059;-73
2023/12/17 09:50:29;;;;;;;39.47;23.05;;;;;;;7.92;100.00;103671.72;5030426;28;20033;-73
2023/12/17 09:52:55;;;;;;;41.70;23.23;;;;;;;7.92;100.00;103669.09;5028449;28;20047;-74
2023/12/17 09:55:20;;;;;;;42.92;22.80;;;;;;;7.86;100.00;103669.88;5028208;28;20355;-73
2023/12/17 09:57:46;;;;;;;37.63;22.08;;;;;;;7.91;100.00;103671.69;5029094;28;20350;-73
2023/12/17 10:00:12;;;;;;;37.80;22.35;;;;;;;7.85;100.00;103670.72;5028719;28;20104;-73
2023/12/17 10:02:38;;;;;;;38.25;21.40;;;;;;;7.84;100.00;103668.97;5029587;28;20388;-73
2023/12/17 10:05:06;;;;;;;34.60;21.50;;;;;;;7.86;100.00;103669.88;5028866;28;20083;-73
2023/12/17 10:07:31;;;;;;;35.92;20.70;;;;;;;7.91;100.00;103658.63;5028599;28;20054;-73
2023/12/17 10:09:57;;;;;;;34.13;20.10;;;;;;;7.85;100.00;103656.81;5029495;28;20244;-73
2023/12/17 10:12:23;;;;;;;34.33;20.10;;;;;;;7.83;100.00;103658.50;5027928;28;20384;-73
2023/12/17 10:14:51;;;;;;;31.55;19.25;;;;;;;7.81;100.00;103653.28;5026571;28;20340;-74
2023/12/17 10:17:17;;;;;;;41.45;19.15;;;;;;;7.83;100.00;103653.31;5027078;28;20148;-73
2023/12/17 10:19:43;;;;;;;36.05;18.70;;;;;;;7.83;100.00;103645.47;5028023;28;20356;-73
2023/12/17 10:22:08;;;;;;;35.33;19.15;;;;;;;7.86;100.00;103649.00;5035506;28;20281;-73
2023/12/17 10:24:37;;;;;;;29.30;18.35;;;;;;;7.84;100.00;103642.88;5039605;28;20289;-73
2023/12/17 10:27:13;;;;;;;;;;;;;;;7.90;100.00;103638.63;5031719;28;20045;-73
2023/12/17 10:29:40;;;;;;;33.47;18.02;;;;;;;7.93;100.00;103641.25;5031132;28;19917;-74
2023/12/17 10:32:07;;;;;;;29.52;17.15;;;;;;;7.88;100.00;103642.06;5031106;28;20045;-73
2023/12/17 10:34:34;;;;;;;35.83;17.88;;;;;;;7.87;100.00;103631.59;5029954;28;20112;-74
2023/12/17 10:36:59;;;;;;;45.45;16.77;;;;;;;7.84;100.00;103622.03;5011741;28;20033;-74
2023/12/17 10:39:26;;;;;;;39.90;16.65;;;;;;;7.92;100.00;103623.88;5028593;28;20063;-73
2023/12/17 10:41:53;;;;;;;34.00;16.85;;;;;;;7.85;100.00;103628.09;5029521;28;20048;-73
2023/12/17 10:44:21;;;;;;;30.40;14.88;;;;;;;7.86;100.00;103603.78;5029336;28;20091;-73
2023/12/17 10:46:48;;;;;;;38.08;15.63;;;;;;;7.89;100.00;103601.19;5022189;28;20030;-73
2023/12/17 10:49:15;;;;;;;31.02;15.80;;;;;;;7.96;100.00;103603.03;5030320;28;20595;-73
2023/12/17 10:51:42;;;;;;;27.73;15.10;;;;;;;8.03;100.00;103602.28;5029826;28;20068;-73
2023/12/17 10:54:08;;;;;;;34.72;15.75;;;;;;;8.00;100.00;103599.59;5029740;28;20033;-73
2023/12/17 10:56:38;;;;;;;23.45;15.25;;;;;;;8.01;100.00;103596.16;5029123;28;20029;-73
2023/12/17 10:59:08;;;;;;;32.55;16.10;;;;;;;8.00;100.00;103590.91;5030058;28;20048;-74
2023/12/17 11:01:37;;;;;;;30.08;16.85;;;;;;;8.01;100.00;103584.84;5029794;28;20233;-74
2023/12/17 11:04:03;;;;;;;;;;;;;;;7.98;100.00;103587.41;5031529;28;20033;-74
2023/12/17 11:06:29;;;;;;;32.25;16.35;;;;;;;7.95;100.00;103590.88;5030788;28;20391;-74
2023/12/17 11:08:54;;;;;;;35.40;17.45;;;;;;;7.92;100.00;103579.50;5033515;28;20045;-73